富士山静岡空港METAR/TAF(約33km東):

RJNS 071200Z 24010KT 9999 FEW008 BKN/// 27/27 Q1010

TAF RJNS 070505Z 0706/0812 24010KT 9999 FEW030 TEMPO 0706/0708 24015G25KT TEMPO 0800/0809 24018G28KT

ソアリング用気象予報:
BLIPMAP 中部地方
中部日本航空連盟および大野グライダークラブの支援により運営されているソアリング用気象予報BLIPMAPの中部地方版です。

風向風力(Windy.com):
スマホでの閲覧には、アプリ版Windy(Android/iOS)が適切です。

EGC Icon